sensor_id;sensor_type;location;lat;lon;timestamp;pressure;altitude;pressure_sealevel;temperature;humidity
41334;BME280;27078;46.428;6.256;2022-08-30T00:01:05;96618.72;;;20.16;100.00
41334;BME280;27078;46.428;6.256;2022-08-30T00:03:34;96617.31;;;20.20;100.00
41334;BME280;27078;46.428;6.256;2022-08-30T00:06:01;96616.72;;;20.24;100.00
41334;BME280;27078;46.428;6.256;2022-08-30T00:08:26;96617.72;;;20.23;100.00
41334;BME280;27078;46.428;6.256;2022-08-30T00:10:52;96614.22;;;20.23;100.00
41334;BME280;27078;46.428;6.256;2022-08-30T00:13:20;96620.81;;;20.20;100.00
41334;BME280;27078;46.428;6.256;2022-08-30T00:15:46;96618.72;;;20.16;100.00
41334;BME280;27078;46.428;6.256;2022-08-30T00:18:12;96624.44;;;20.12;100.00
41334;BME280;27078;46.428;6.256;2022-08-30T00:20:40;96615.97;;;20.09;100.00
41334;BME280;27078;46.428;6.256;2022-08-30T00:23:06;96609.59;;;20.10;100.00
41334;BME280;27078;46.428;6.256;2022-08-30T00:25:32;96610.63;;;20.09;100.00
41334;BME280;27078;46.428;6.256;2022-08-30T00:27:57;96604.34;;;20.02;100.00
41334;BME280;27078;46.428;6.256;2022-08-30T00:30:23;96614.06;;;20.03;100.00
41334;BME280;27078;46.428;6.256;2022-08-30T00:32:48;96613.16;;;19.96;100.00
41334;BME280;27078;46.428;6.256;2022-08-30T00:35:16;96614.56;;;19.91;100.00
41334;BME280;27078;46.428;6.256;2022-08-30T00:37:42;96607.38;;;19.92;100.00
41334;BME280;27078;46.428;6.256;2022-08-30T00:40:09;96612.31;;;19.95;100.00
41334;BME280;27078;46.428;6.256;2022-08-30T00:42:36;96613.72;;;19.91;100.00
41334;BME280;27078;46.428;6.256;2022-08-30T00:45:38;96610.69;;;19.94;100.00
41334;BME280;27078;46.428;6.256;2022-08-30T00:48:06;96601.53;;;19.88;100.00
41334;BME280;27078;46.428;6.256;2022-08-30T00:50:37;96596.38;;;19.87;100.00
41334;BME280;27078;46.428;6.256;2022-08-30T00:53:05;96597.97;;;19.81;100.00
41334;BME280;27078;46.428;6.256;2022-08-30T00:55:31;96592.41;;;19.83;100.00
41334;BME280;27078;46.428;6.256;2022-08-30T00:57:59;96591.66;;;19.89;100.00
41334;BME280;27078;46.428;6.256;2022-08-30T01:00:26;96598.03;;;19.88;100.00
41334;BME280;27078;46.428;6.256;2022-08-30T01:02:51;96596.00;;;19.90;100.00
41334;BME280;27078;46.428;6.256;2022-08-30T01:05:17;96592.47;;;19.89;100.00
41334;BME280;27078;46.428;6.256;2022-08-30T01:07:43;96594.44;;;19.81;100.00
41334;BME280;27078;46.428;6.256;2022-08-30T01:10:11;96601.97;;;19.70;100.00
41334;BME280;27078;46.428;6.256;2022-08-30T01:12:39;96592.75;;;19.73;100.00
41334;BME280;27078;46.428;6.256;2022-08-30T01:15:06;96597.59;;;19.69;100.00
41334;BME280;27078;46.428;6.256;2022-08-30T01:17:32;96602.16;;;19.69;100.00
41334;BME280;27078;46.428;6.256;2022-08-30T01:20:03;96595.22;;;19.75;100.00
41334;BME280;27078;46.428;6.256;2022-08-30T01:22:33;96597.25;;;19.72;100.00
41334;BME280;27078;46.428;6.256;2022-08-30T01:25:01;96601.78;;;19.72;100.00
41334;BME280;27078;46.428;6.256;2022-08-30T01:27:28;96609.38;;;19.68;100.00
41334;BME280;27078;46.428;6.256;2022-08-30T01:29:54;96606.03;;;19.66;100.00
41334;BME280;27078;46.428;6.256;2022-08-30T01:32:25;96607.44;;;19.62;100.00
41334;BME280;27078;46.428;6.256;2022-08-30T01:34:53;96610.47;;;19.59;100.00
41334;BME280;27078;46.428;6.256;2022-08-30T01:37:23;96605.22;;;19.51;100.00
41334;BME280;27078;46.428;6.256;2022-08-30T01:39:49;96605.78;;;19.46;100.00
41334;BME280;27078;46.428;6.256;2022-08-30T01:42:15;96604.59;;;19.49;100.00
41334;BME280;27078;46.428;6.256;2022-08-30T01:44:44;96605.16;;;19.44;100.00
41334;BME280;27078;46.428;6.256;2022-08-30T01:47:10;96600.84;;;19.43;100.00
41334;BME280;27078;46.428;6.256;2022-08-30T01:49:36;96597.59;;;19.48;100.00
41334;BME280;27078;46.428;6.256;2022-08-30T01:52:03;96607.66;;;19.46;100.00
41334;BME280;27078;46.428;6.256;2022-08-30T01:54:29;96602.94;;;19.48;100.00
41334;BME280;27078;46.428;6.256;2022-08-30T01:56:55;96605.63;;;19.48;100.00
41334;BME280;27078;46.428;6.256;2022-08-30T01:59:20;96606.44;;;19.48;100.00
41334;BME280;27078;46.428;6.256;2022-08-30T02:01:46;96595.91;;;19.47;100.00
41334;BME280;27078;46.428;6.256;2022-08-30T02:04:11;96597.75;;;19.46;100.00
41334;BME280;27078;46.428;6.256;2022-08-30T02:06:38;96594.91;;;19.48;100.00
41334;BME280;27078;46.428;6.256;2022-08-30T02:09:04;96605.06;;;19.38;100.00
41334;BME280;27078;46.428;6.256;2022-08-30T02:11:29;96595.75;;;19.33;100.00
41334;BME280;27078;46.428;6.256;2022-08-30T02:13:55;96596.78;;;19.32;100.00
41334;BME280;27078;46.428;6.256;2022-08-30T02:16:22;96594.13;;;19.32;100.00
41334;BME280;27078;46.428;6.256;2022-08-30T02:18:49;96596.50;;;19.27;100.00
41334;BME280;27078;46.428;6.256;2022-08-30T02:21:14;96592.19;;;19.26;100.00
41334;BME280;27078;46.428;6.256;2022-08-30T02:23:40;96592.84;;;19.28;100.00
41334;BME280;27078;46.428;6.256;2022-08-30T02:26:06;96596.34;;;19.29;100.00
41334;BME280;27078;46.428;6.256;2022-08-30T02:28:32;96597.97;;;19.30;100.00
41334;BME280;27078;46.428;6.256;2022-08-30T02:30:57;96600.88;;;19.28;100.00
41334;BME280;27078;46.428;6.256;2022-08-30T02:33:23;96592.84;;;19.28;100.00
41334;BME280;27078;46.428;6.256;2022-08-30T02:35:48;96593.47;;;19.30;100.00
41334;BME280;27078;46.428;6.256;2022-08-30T02:38:14;96591.97;;;19.28;100.00
41334;BME280;27078;46.428;6.256;2022-08-30T02:40:40;96591.44;;;19.32;100.00
41334;BME280;27078;46.428;6.256;2022-08-30T02:43:05;96591.16;;;19.27;100.00
41334;BME280;27078;46.428;6.256;2022-08-30T02:45:31;96597.91;;;19.23;100.00
41334;BME280;27078;46.428;6.256;2022-08-30T02:47:57;96591.47;;;19.18;100.00
41334;BME280;27078;46.428;6.256;2022-08-30T02:50:23;96597.63;;;19.18;100.00
41334;BME280;27078;46.428;6.256;2022-08-30T02:52:49;96600.31;;;19.18;100.00
41334;BME280;27078;46.428;6.256;2022-08-30T02:55:15;96589.78;;;19.17;100.00
41334;BME280;27078;46.428;6.256;2022-08-30T02:57:41;96584.63;;;19.15;100.00
41334;BME280;27078;46.428;6.256;2022-08-30T03:00:10;96594.03;;;19.11;100.00
41334;BME280;27078;46.428;6.256;2022-08-30T03:02:37;96592.38;;;19.10;100.00
41334;BME280;27078;46.428;6.256;2022-08-30T03:05:03;96599.03;;;19.14;100.00
41334;BME280;27078;46.428;6.256;2022-08-30T03:07:29;96601.88;;;19.12;100.00
41334;BME280;27078;46.428;6.256;2022-08-30T03:09:55;96600.03;;;19.13;100.00
41334;BME280;27078;46.428;6.256;2022-08-30T03:12:21;96600.13;;;19.05;100.00
41334;BME280;27078;46.428;6.256;2022-08-30T03:14:47;96599.22;;;18.98;100.00
41334;BME280;27078;46.428;6.256;2022-08-30T03:17:12;96607.88;;;19.00;100.00
41334;BME280;27078;46.428;6.256;2022-08-30T03:19:38;96601.06;;;18.97;100.00
41334;BME280;27078;46.428;6.256;2022-08-30T03:22:04;96609.00;;;18.90;100.00
41334;BME280;27078;46.428;6.256;2022-08-30T03:24:30;96600.13;;;18.90;100.00
41334;BME280;27078;46.428;6.256;2022-08-30T03:26:56;96600.34;;;18.88;100.00
41334;BME280;27078;46.428;6.256;2022-08-30T03:29:21;96590.47;;;18.89;100.00
41334;BME280;27078;46.428;6.256;2022-08-30T03:31:47;96592.00;;;18.83;100.00
41334;BME280;27078;46.428;6.256;2022-08-30T03:34:13;96585.19;;;18.81;100.00
41334;BME280;27078;46.428;6.256;2022-08-30T03:36:38;96590.03;;;18.77;100.00
41334;BME280;27078;46.428;6.256;2022-08-30T03:39:05;96590.91;;;18.78;100.00
41334;BME280;27078;46.428;6.256;2022-08-30T03:41:30;96591.81;;;18.70;100.00
41334;BME280;27078;46.428;6.256;2022-08-30T03:43:57;96583.59;;;18.71;100.00
41334;BME280;27078;46.428;6.256;2022-08-30T03:46:22;96580.19;;;18.63;100.00
41334;BME280;27078;46.428;6.256;2022-08-30T03:48:47;96584.50;;;18.64;100.00
41334;BME280;27078;46.428;6.256;2022-08-30T03:51:13;96583.03;;;18.61;100.00
41334;BME280;27078;46.428;6.256;2022-08-30T03:53:38;96591.41;;;18.58;100.00
41334;BME280;27078;46.428;6.256;2022-08-30T03:56:03;96591.25;;;18.60;100.00
41334;BME280;27078;46.428;6.256;2022-08-30T03:58:29;96585.88;;;18.60;100.00
41334;BME280;27078;46.428;6.256;2022-08-30T04:00:54;96583.38;;;18.58;100.00
41334;BME280;27078;46.428;6.256;2022-08-30T04:03:20;96581.84;;;18.64;100.00
41334;BME280;27078;46.428;6.256;2022-08-30T04:05:53;96579.91;;;18.58;100.00
41334;BME280;27078;46.428;6.256;2022-08-30T04:08:19;96576.31;;;18.50;100.00
41334;BME280;27078;46.428;6.256;2022-08-30T04:10:45;96566.50;;;18.43;100.00
41334;BME280;27078;46.428;6.256;2022-08-30T04:13:15;96568.72;;;18.39;100.00
41334;BME280;27078;46.428;6.256;2022-08-30T04:15:40;96577.38;;;18.41;100.00
41334;BME280;27078;46.428;6.256;2022-08-30T04:18:06;96572.34;;;18.46;100.00
41334;BME280;27078;46.428;6.256;2022-08-30T04:20:31;96572.59;;;18.51;100.00
41334;BME280;27078;46.428;6.256;2022-08-30T04:22:58;96568.47;;;18.49;100.00
41334;BME280;27078;46.428;6.256;2022-08-30T04:25:23;96581.28;;;18.54;100.00
41334;BME280;27078;46.428;6.256;2022-08-30T04:27:48;96583.38;;;18.58;100.00
41334;BME280;27078;46.428;6.256;2022-08-30T04:30:15;96580.91;;;18.57;100.00
41334;BME280;27078;46.428;6.256;2022-08-30T04:32:42;96589.59;;;18.59;100.00
41334;BME280;27078;46.428;6.256;2022-08-30T04:35:09;96585.53;;;18.63;100.00
41334;BME280;27078;46.428;6.256;2022-08-30T04:37:36;96586.91;;;18.59;100.00
41334;BME280;27078;46.428;6.256;2022-08-30T04:40:02;96579.97;;;18.49;100.00
41334;BME280;27078;46.428;6.256;2022-08-30T04:42:30;96581.00;;;18.48;100.00
41334;BME280;27078;46.428;6.256;2022-08-30T04:44:57;96583.69;;;18.48;100.00
41334;BME280;27078;46.428;6.256;2022-08-30T04:47:24;96587.09;;;18.57;100.00
41334;BME280;27078;46.428;6.256;2022-08-30T04:49:51;96592.19;;;18.67;100.00
41334;BME280;27078;46.428;6.256;2022-08-30T04:52:16;96596.50;;;18.68;100.00
41334;BME280;27078;46.428;6.256;2022-08-30T04:54:42;96599.66;;;18.71;100.00
41334;BME280;27078;46.428;6.256;2022-08-30T04:57:07;96602.13;;;18.73;100.00
41334;BME280;27078;46.428;6.256;2022-08-30T04:59:32;96608.03;;;18.68;100.00
41334;BME280;27078;46.428;6.256;2022-08-30T05:01:58;96601.75;;;18.61;100.00
41334;BME280;27078;46.428;6.256;2022-08-30T05:04:24;96603.69;;;18.52;100.00
41334;BME280;27078;46.428;6.256;2022-08-30T05:06:49;96595.66;;;18.52;100.00
41334;BME280;27078;46.428;6.256;2022-08-30T05:09:14;96598.69;;;18.49;100.00
41334;BME280;27078;46.428;6.256;2022-08-30T05:11:40;96599.53;;;18.50;100.00
41334;BME280;27078;46.428;6.256;2022-08-30T05:14:07;96600.00;;;18.54;100.00
41334;BME280;27078;46.428;6.256;2022-08-30T05:16:33;96600.28;;;18.59;100.00
41334;BME280;27078;46.428;6.256;2022-08-30T05:18:58;96595.84;;;18.66;100.00
41334;BME280;27078;46.428;6.256;2022-08-30T05:21:25;96598.91;;;18.63;100.00
41334;BME280;27078;46.428;6.256;2022-08-30T05:23:57;96590.03;;;18.62;100.00
41334;BME280;27078;46.428;6.256;2022-08-30T05:26:26;96577.78;;;18.68;100.00
41334;BME280;27078;46.428;6.256;2022-08-30T05:28:52;96581.75;;;18.72;100.00
41334;BME280;27078;46.428;6.256;2022-08-30T05:31:27;96577.34;;;18.79;100.00
41334;BME280;27078;46.428;6.256;2022-08-30T05:33:54;96585.28;;;18.87;100.00
41334;BME280;27078;46.428;6.256;2022-08-30T05:36:22;96594.59;;;18.91;100.00
41334;BME280;27078;46.428;6.256;2022-08-30T05:38:48;96603.91;;;18.96;100.00
41334;BME280;27078;46.428;6.256;2022-08-30T05:41:16;96599.88;;;19.00;100.00
41334;BME280;27078;46.428;6.256;2022-08-30T05:43:42;96609.00;;;19.05;100.00
41334;BME280;27078;46.428;6.256;2022-08-30T05:46:10;96612.31;;;19.07;100.00
41334;BME280;27078;46.428;6.256;2022-08-30T05:48:36;96614.25;;;19.14;100.00
41334;BME280;27078;46.428;6.256;2022-08-30T05:51:05;96608.13;;;19.20;100.00
41334;BME280;27078;46.428;6.256;2022-08-30T05:53:31;96610.28;;;19.24;100.00
41334;BME280;27078;46.428;6.256;2022-08-30T05:55:57;96609.06;;;19.27;100.00
41334;BME280;27078;46.428;6.256;2022-08-30T05:58:22;96609.63;;;19.22;100.00
41334;BME280;27078;46.428;6.256;2022-08-30T06:00:47;96608.31;;;19.33;100.00
41334;BME280;27078;46.428;6.256;2022-08-30T06:03:13;96609.25;;;19.25;100.00
41334;BME280;27078;46.428;6.256;2022-08-30T06:05:38;96609.63;;;19.22;100.00
41334;BME280;27078;46.428;6.256;2022-08-30T06:08:03;96613.13;;;19.23;100.00
41334;BME280;27078;46.428;6.256;2022-08-30T06:10:29;96607.03;;;19.29;100.00
41334;BME280;27078;46.428;6.256;2022-08-30T06:12:54;96603.78;;;19.33;100.00
41334;BME280;27078;46.428;6.256;2022-08-30T06:15:19;96601.13;;;19.33;100.00
41334;BME280;27078;46.428;6.256;2022-08-30T06:17:46;96600.72;;;19.37;100.00
41334;BME280;27078;46.428;6.256;2022-08-30T06:20:11;96602.28;;;19.46;100.00
41334;BME280;27078;46.428;6.256;2022-08-30T06:22:38;96601.34;;;19.53;100.00
41334;BME280;27078;46.428;6.256;2022-08-30T06:25:05;96601.63;;;19.59;100.00
41334;BME280;27078;46.428;6.256;2022-08-30T06:27:31;96590.06;;;19.73;100.00
41334;BME280;27078;46.428;6.256;2022-08-30T06:29:56;96590.94;;;19.80;100.00
41334;BME280;27078;46.428;6.256;2022-08-30T06:32:22;96593.97;;;19.92;100.00
41334;BME280;27078;46.428;6.256;2022-08-30T06:34:47;96590.13;;;20.01;100.00
41334;BME280;27078;46.428;6.256;2022-08-30T06:37:13;96588.59;;;20.13;100.00
41334;BME280;27078;46.428;6.256;2022-08-30T06:39:39;96589.59;;;20.34;100.00
41334;BME280;27078;46.428;6.256;2022-08-30T06:42:04;96590.22;;;20.58;100.00
41334;BME280;27078;46.428;6.256;2022-08-30T06:44:29;96586.41;;;20.80;100.00
41334;BME280;27078;46.428;6.256;2022-08-30T06:46:55;96590.00;;;20.87;100.00
41334;BME280;27078;46.428;6.256;2022-08-30T06:49:20;96594.97;;;20.97;100.00
41334;BME280;27078;46.428;6.256;2022-08-30T06:51:45;96589.06;;;21.08;100.00
41334;BME280;27078;46.428;6.256;2022-08-30T06:54:11;96588.69;;;21.18;100.00
41334;BME280;27078;46.428;6.256;2022-08-30T06:56:37;96588.06;;;21.23;100.00
41334;BME280;27078;46.428;6.256;2022-08-30T06:59:03;96590.41;;;21.32;100.00
41334;BME280;27078;46.428;6.256;2022-08-30T07:01:29;96591.53;;;21.45;100.00
41334;BME280;27078;46.428;6.256;2022-08-30T07:03:55;96602.75;;;21.68;100.00
41334;BME280;27078;46.428;6.256;2022-08-30T07:06:22;96604.00;;;21.72;100.00
41334;BME280;27078;46.428;6.256;2022-08-30T07:08:47;96611.06;;;21.87;100.00
41334;BME280;27078;46.428;6.256;2022-08-30T07:11:14;96606.09;;;21.84;100.00
41334;BME280;27078;46.428;6.256;2022-08-30T07:13:40;96613.34;;;21.90;100.00
41334;BME280;27078;46.428;6.256;2022-08-30T07:16:13;96614.41;;;21.89;100.00
41334;BME280;27078;46.428;6.256;2022-08-30T07:18:39;96620.78;;;21.88;100.00
41334;BME280;27078;46.428;6.256;2022-08-30T07:21:28;96608.81;;;21.97;100.00
41334;BME280;27078;46.428;6.256;2022-08-30T07:23:55;96611.91;;;22.01;100.00
41334;BME280;27078;46.428;6.256;2022-08-30T07:26:25;96620.00;;;22.07;100.00
41334;BME280;27078;46.428;6.256;2022-08-30T07:28:51;96620.22;;;22.12;100.00
41334;BME280;27078;46.428;6.256;2022-08-30T07:31:17;96632.84;;;22.19;100.00
41334;BME280;27078;46.428;6.256;2022-08-30T07:33:44;96626.22;;;22.21;100.00
41334;BME280;27078;46.428;6.256;2022-08-30T07:36:10;96632.25;;;22.23;100.00
41334;BME280;27078;46.428;6.256;2022-08-30T07:38:36;96630.00;;;22.27;100.00
41334;BME280;27078;46.428;6.256;2022-08-30T07:41:02;96639.72;;;22.28;100.00
41334;BME280;27078;46.428;6.256;2022-08-30T07:43:28;96632.69;;;22.33;100.00
41334;BME280;27078;46.428;6.256;2022-08-30T07:45:54;96630.38;;;22.37;100.00
41334;BME280;27078;46.428;6.256;2022-08-30T07:48:20;96633.31;;;22.42;100.00
41334;BME280;27078;46.428;6.256;2022-08-30T07:50:46;96631.63;;;22.48;100.00
41334;BME280;27078;46.428;6.256;2022-08-30T07:53:12;96635.56;;;22.45;100.00
41334;BME280;27078;46.428;6.256;2022-08-30T07:55:38;96642.00;;;22.44;100.00
41334;BME280;27078;46.428;6.256;2022-08-30T07:58:03;96637.63;;;22.50;100.00
41334;BME280;27078;46.428;6.256;2022-08-30T08:00:29;96633.50;;;22.47;100.00
41334;BME280;27078;46.428;6.256;2022-08-30T08:02:54;96634.94;;;22.50;100.00
41334;BME280;27078;46.428;6.256;2022-08-30T08:05:19;96634.97;;;22.56;100.00
41334;BME280;27078;46.428;6.256;2022-08-30T08:07:45;96638.28;;;22.59;100.00
41334;BME280;27078;46.428;6.256;2022-08-30T08:10:10;96631.44;;;22.63;100.00
41334;BME280;27078;46.428;6.256;2022-08-30T08:12:37;96622.31;;;22.70;100.00
41334;BME280;27078;46.428;6.256;2022-08-30T08:15:03;96628.91;;;22.88;100.00
41334;BME280;27078;46.428;6.256;2022-08-30T08:17:29;96627.25;;;22.93;100.00
41334;BME280;27078;46.428;6.256;2022-08-30T08:19:54;96625.00;;;23.04;100.00
41334;BME280;27078;46.428;6.256;2022-08-30T08:22:20;96626.41;;;23.13;100.00
41334;BME280;27078;46.428;6.256;2022-08-30T08:24:45;96632.19;;;23.23;100.00
41334;BME280;27078;46.428;6.256;2022-08-30T08:27:11;96618.28;;;23.33;100.00
41334;BME280;27078;46.428;6.256;2022-08-30T08:29:36;96623.66;;;23.40;100.00
41334;BME280;27078;46.428;6.256;2022-08-30T08:32:01;96617.63;;;23.44;100.00
41334;BME280;27078;46.428;6.256;2022-08-30T08:34:27;96621.13;;;23.45;100.00
41334;BME280;27078;46.428;6.256;2022-08-30T08:36:52;96622.84;;;23.39;100.00
41334;BME280;27078;46.428;6.256;2022-08-30T08:39:18;96628.00;;;23.41;100.00
41334;BME280;27078;46.428;6.256;2022-08-30T08:42:04;96629.66;;;23.42;100.00
41334;BME280;27078;46.428;6.256;2022-08-30T08:44:53;96632.13;;;23.50;100.00
41334;BME280;27078;46.428;6.256;2022-08-30T08:50:18;96638.38;;;23.30;100.00
41334;BME280;27078;46.428;6.256;2022-08-30T08:52:51;96630.97;;;23.19;100.00
41334;BME280;27078;46.428;6.256;2022-08-30T08:55:39;96632.63;;;23.13;100.00
41334;BME280;27078;46.428;6.256;2022-08-30T08:58:07;96640.50;;;23.15;100.00
41334;BME280;27078;46.428;6.256;2022-08-30T09:00:37;96639.47;;;23.03;100.00
41334;BME280;27078;46.428;6.256;2022-08-30T09:03:03;96651.31;;;23.02;100.00
41334;BME280;27078;46.428;6.256;2022-08-30T09:05:34;96644.25;;;23.01;100.00
41334;BME280;27078;46.428;6.256;2022-08-30T09:08:06;96652.94;;;23.03;100.00
41334;BME280;27078;46.428;6.256;2022-08-30T09:10:33;96655.41;;;23.11;100.00
41334;BME280;27078;46.428;6.256;2022-08-30T09:12:59;96655.00;;;23.21;100.00
41334;BME280;27078;46.428;6.256;2022-08-30T09:15:29;96655.41;;;23.24;100.00
41334;BME280;27078;46.428;6.256;2022-08-30T09:17:59;96660.38;;;23.27;100.00
41334;BME280;27078;46.428;6.256;2022-08-30T09:22:57;96663.59;;;23.56;100.00
41334;BME280;27078;46.428;6.256;2022-08-30T09:25:27;96660.19;;;23.81;100.00
41334;BME280;27078;46.428;6.256;2022-08-30T09:28:07;96647.09;;;23.91;100.00
41334;BME280;27078;46.428;6.256;2022-08-30T09:30:32;96653.44;;;24.03;100.00
41334;BME280;27078;46.428;6.256;2022-08-30T09:35:46;96641.44;;;24.31;100.00
41334;BME280;27078;46.428;6.256;2022-08-30T09:38:23;96647.09;;;24.23;100.00
41334;BME280;27078;46.428;6.256;2022-08-30T09:40:53;96642.56;;;24.48;100.00
41334;BME280;27078;46.428;6.256;2022-08-30T09:43:26;96639.81;;;24.55;100.00
41334;BME280;27078;46.428;6.256;2022-08-30T09:48:33;96640.72;;;24.49;100.00
41334;BME280;27078;46.428;6.256;2022-08-30T09:53:35;96635.50;;;24.79;100.00
41334;BME280;27078;46.428;6.256;2022-08-30T09:56:06;96634.47;;;24.98;100.00
41334;BME280;27078;46.428;6.256;2022-08-30T10:01:27;96635.78;;;25.33;100.00
41334;BME280;27078;46.428;6.256;2022-08-30T10:06:30;96637.38;;;25.41;100.00
41334;BME280;27078;46.428;6.256;2022-08-30T10:09:02;96645.94;;;25.12;100.00
41334;BME280;27078;46.428;6.256;2022-08-30T10:11:44;96645.56;;;24.90;100.00
41334;BME280;27078;46.428;6.256;2022-08-30T10:25:29;96634.28;;;24.75;100.00
41334;BME280;27078;46.428;6.256;2022-08-30T10:30:21;96634.44;;;24.80;100.00
41334;BME280;27078;46.428;6.256;2022-08-30T10:32:56;96636.09;;;24.81;98.99
41334;BME280;27078;46.428;6.256;2022-08-30T10:35:32;96634.44;;;24.80;99.80
41334;BME280;27078;46.428;6.256;2022-08-30T10:38:28;96637.91;;;24.87;98.15
41334;BME280;27078;46.428;6.256;2022-08-30T10:41:09;96629.81;;;24.87;97.12
41334;BME280;27078;46.428;6.256;2022-08-30T10:44:02;96627.91;;;25.31;93.66
41334;BME280;27078;46.428;6.256;2022-08-30T10:49:10;96620.97;;;25.91;88.49
41334;BME280;27078;46.428;6.256;2022-08-30T10:51:45;96618.56;;;26.13;87.05
41334;BME280;27078;46.428;6.256;2022-08-30T10:54:18;96615.81;;;26.31;86.13
41334;BME280;27078;46.428;6.256;2022-08-30T10:56:49;96615.69;;;26.38;85.06
41334;BME280;27078;46.428;6.256;2022-08-30T10:59:17;96620.97;;;26.33;83.12
41334;BME280;27078;46.428;6.256;2022-08-30T11:07:19;96623.28;;;26.59;79.89
41334;BME280;27078;46.428;6.256;2022-08-30T11:12:51;96613.75;;;26.69;80.95
41334;BME280;27078;46.428;6.256;2022-08-30T11:15:26;96614.81;;;26.79;80.00
41334;BME280;27078;46.428;6.256;2022-08-30T11:18:04;96613.41;;;26.77;77.72
41334;BME280;27078;46.428;6.256;2022-08-30T11:20:39;96608.22;;;26.87;80.74
41334;BME280;27078;46.428;6.256;2022-08-30T11:23:31;96607.75;;;26.78;77.80
41334;BME280;27078;46.428;6.256;2022-08-30T11:39:05;96610.56;;;26.06;82.43
41334;BME280;27078;46.428;6.256;2022-08-30T11:46:49;96599.75;;;25.88;83.09
41334;BME280;27078;46.428;6.256;2022-08-30T11:59:53;96599.84;;;25.51;85.69
41334;BME280;27078;46.428;6.256;2022-08-30T12:03:01;96604.03;;;25.47;89.00
41334;BME280;27078;46.428;6.256;2022-08-30T12:10:51;96604.59;;;25.67;87.85
41334;BME280;27078;46.428;6.256;2022-08-30T12:19:10;96600.94;;;26.10;83.80
41334;BME280;27078;46.428;6.256;2022-08-30T12:21:38;96593.66;;;26.23;83.04
41334;BME280;27078;46.428;6.256;2022-08-30T12:24:06;96594.25;;;26.25;79.59
41334;BME280;27078;46.428;6.256;2022-08-30T12:26:42;96588.38;;;26.28;75.96
41334;BME280;27078;46.428;6.256;2022-08-30T12:29:13;96588.50;;;26.33;78.11
41334;BME280;27078;46.428;6.256;2022-08-30T12:31:55;96585.78;;;26.33;74.95
41334;BME280;27078;46.428;6.256;2022-08-30T12:39:48;96565.72;;;26.64;73.88
41334;BME280;27078;46.428;6.256;2022-08-30T12:42:27;96563.25;;;26.63;69.75
41334;BME280;27078;46.428;6.256;2022-08-30T12:44:58;96555.13;;;26.63;72.06
41334;BME280;27078;46.428;6.256;2022-08-30T12:50:02;96552.84;;;27.18;71.29
41334;BME280;27078;46.428;6.256;2022-08-30T12:52:34;96546.84;;;27.57;68.69
41334;BME280;27078;46.428;6.256;2022-08-30T13:00:31;96535.63;;;28.45;60.22
41334;BME280;27078;46.428;6.256;2022-08-30T13:03:00;96536.91;;;28.54;64.61
41334;BME280;27078;46.428;6.256;2022-08-30T13:08:18;96521.41;;;28.93;62.97
41334;BME280;27078;46.428;6.256;2022-08-30T13:15:56;96506.03;;;29.43;59.94
41334;BME280;27078;46.428;6.256;2022-08-30T13:18:30;96497.06;;;29.20;56.29
41334;BME280;27078;46.428;6.256;2022-08-30T13:21:28;96488.13;;;29.47;62.46
41334;BME280;27078;46.428;6.256;2022-08-30T13:23:59;96477.28;;;29.25;62.73
41334;BME280;27078;46.428;6.256;2022-08-30T13:26:26;96489.00;;;29.26;61.34
41334;BME280;27078;46.428;6.256;2022-08-30T13:28:55;96488.59;;;29.66;60.17
41334;BME280;27078;46.428;6.256;2022-08-30T13:31:22;96479.06;;;29.91;57.93
41334;BME280;27078;46.428;6.256;2022-08-30T13:33:49;96462.34;;;30.09;59.28
41334;BME280;27078;46.428;6.256;2022-08-30T13:36:18;96465.69;;;30.16;58.71
41334;BME280;27078;46.428;6.256;2022-08-30T13:38:44;96469.03;;;30.29;55.61
41334;BME280;27078;46.428;6.256;2022-08-30T13:41:09;96460.72;;;30.13;58.65
41334;BME280;27078;46.428;6.256;2022-08-30T13:43:35;96460.03;;;30.28;55.75
41334;BME280;27078;46.428;6.256;2022-08-30T13:46:00;96451.72;;;30.40;55.78
41334;BME280;27078;46.428;6.256;2022-08-30T13:48:26;96454.50;;;30.55;57.29
41334;BME280;27078;46.428;6.256;2022-08-30T13:50:51;96448.50;;;30.53;53.42
41334;BME280;27078;46.428;6.256;2022-08-30T13:53:18;96446.31;;;30.50;53.18
41334;BME280;27078;46.428;6.256;2022-08-30T13:55:43;96444.50;;;30.66;52.25
41334;BME280;27078;46.428;6.256;2022-08-30T13:58:09;96443.25;;;30.41;54.81
41334;BME280;27078;46.428;6.256;2022-08-30T14:00:34;96439.25;;;30.54;54.96
41334;BME280;27078;46.428;6.256;2022-08-30T14:03:00;96440.75;;;30.30;56.91
41334;BME280;27078;46.428;6.256;2022-08-30T14:05:28;96441.75;;;30.23;57.13
41334;BME280;27078;46.428;6.256;2022-08-30T14:07:55;96445.22;;;30.46;57.25
41334;BME280;27078;46.428;6.256;2022-08-30T14:10:23;96444.44;;;30.56;54.99
41334;BME280;27078;46.428;6.256;2022-08-30T14:12:49;96439.34;;;30.75;54.94
41334;BME280;27078;46.428;6.256;2022-08-30T14:15:15;96442.97;;;30.38;56.23
41334;BME280;27078;46.428;6.256;2022-08-30T14:17:40;96441.22;;;29.89;61.20
41334;BME280;27078;46.428;6.256;2022-08-30T14:20:06;96444.97;;;29.56;65.88
41334;BME280;27078;46.428;6.256;2022-08-30T14:22:31;96435.72;;;29.08;68.60
41334;BME280;27078;46.428;6.256;2022-08-30T14:24:57;96442.00;;;28.47;71.70
41334;BME280;27078;46.428;6.256;2022-08-30T14:27:26;96442.88;;;28.14;77.95
41334;BME280;27078;46.428;6.256;2022-08-30T14:29:51;96440.66;;;27.94;78.59
41334;BME280;27078;46.428;6.256;2022-08-30T14:32:16;96435.38;;;27.87;79.71
41334;BME280;27078;46.428;6.256;2022-08-30T14:34:42;96438.81;;;27.82;80.48
41334;BME280;27078;46.428;6.256;2022-08-30T14:37:07;96439.78;;;27.76;81.09
41334;BME280;27078;46.428;6.256;2022-08-30T14:39:32;96431.63;;;27.88;79.83
41334;BME280;27078;46.428;6.256;2022-08-30T14:41:58;96430.53;;;28.06;78.26